Airfield :
LOGIN :

Register | Disclaimer

   EN    FR    IT 

 










Legend :    VFR   Marginal VFR   IFR   Intensive IFR   Very Intensive IFR
Visi :
Ceiling :
>= 8 km
>= 3000ft
5 to 8 km
1000 to 3000 ft
1500m to 5 km
500 to 1000 ft
800 to 1500m
200 to 500 ft
< 800m
< 200 ft
Symbols :   Thunderstorms  Fog  Heavy snow  Heavy precipitations  Wind > 20 kt
SIGMETs :     Misc.  Thunderstorms  Icing  Turbulence  Mountain Waves  Volcanic Ashes






- Airport Elevation : 288 ft
- IATA code : BZZ


EGVN - RAF Brize Norton

CURRENT METAR :
  • 101050Z 20014G24KT 4000 RA SCT011 OVC021 09/08 Q1011 BECMG 7000 -RA

EXPIRED METARs :
  • 101020Z 20015G28KT 9999 -RA BKN015 OVC023 09/07 Q1012 TEMPO 5000 RA BKN012 RMK WHT TEMPO GRN
  • 100950Z 19012G23KT 7000 -RA BKN013 OVC023 09/07 Q1013 TEMPO 9999
  • 100920Z 19011KT 9999 BKN014 OVC023 09/07 Q1014 TEMPO 7000 RA RMK GRN TEMPO GRN
  • 100850Z 19012KT 9999 BKN015 08/06 Q1014 TEMPO BKN014 RMK WHT TEMPO GRN
  • 100820Z 19010KT 9999 -RA SCT016 OVC023 08/06 Q1015 TEMPO SCT014

TAF TAF EGVN
Valid from the 10 at 09:00 until the 11 at 09:00 UTC


100748Z 1009/1109 19015G25KT 9999 BKN015
TEMPO 1009/1021 7000 RA BKN012
PROB30
TEMPO 1011/1019 20020G35KT
PROB30
TEMPO 1016/1021 4000 +RA
BECMG 1018/1021 26007KT FEW030



MET'MAP, your aeronautical weather chart ! - Copyright ORBIFLY December 2007 - Disclaimer

ORBIFLY MET'MAP TEAM :

Programming & Development : Alexandra Zaïnal
Concept & original design : Baudouin d'Aumeries
Assistance for programming : Marc-Olivier Méhu
Technical & hardware support : Manuel Goepfert

Contact : metmap@orbifly.com




SOURCES & CREDITS :

   NOAA